HAZ2201 ZSHC-ZGDY
Flight info
| Callsign | HAZ2201 |
|---|---|
| Flight time | 1h 49m |
| Altitude | 34100 |
| Route | NIVIK8D NIVIK W135 DOGVI W545 VEMEX W73 MADUK W51 LEGIV W164 ADGOL W50 XSH W80 IDGAG A581 LIN W141 DYG |
| Aircraft | A320/M-SDE3FGHIRWY/LB1 |
Departure
| Time | 2026-04-22 13:00 |
|---|---|
| Airport | Hangzhou Xiaoshan International Airport (ZSHC) |
Arrival
| Time | 2026-04-22 14:50 |
|---|---|
| Airport | Zhangjiajie Hehua International Airport (ZGDY) |
| Time | Latitude | Longitude | Altitude | Speed | Heading |
|---|---|---|---|---|---|
| 2026-04-22 12:28 | 30.24132 | 120.42808 | 33 ft | 0 kts | 240° |
| 2026-04-22 12:48 | 30.24135 | 120.42814 | 32 ft | 2 kts | 240° |
| 2026-04-22 12:48 | 30.24144 | 120.42835 | 31 ft | 3 kts | 257° |
| 2026-04-22 12:48 | 30.24146 | 120.42857 | 31 ft | 3 kts | 282° |
| 2026-04-22 12:49 | 30.24139 | 120.42877 | 31 ft | 3 kts | 312° |
| 2026-04-22 12:49 | 30.24128 | 120.42888 | 32 ft | 1 kts | 332° |
| 2026-04-22 12:49 | 30.24124 | 120.42891 | 31 ft | 0 kts | 332° |
| 2026-04-22 12:51 | 30.24125 | 120.42890 | 30 ft | 1 kts | 332° |
| 2026-04-22 12:52 | 30.24133 | 120.42885 | 31 ft | 4 kts | 332° |
| 2026-04-22 12:52 | 30.24196 | 120.42847 | 32 ft | 15 kts | 332° |
| 2026-04-22 12:52 | 30.24287 | 120.42807 | 32 ft | 12 kts | 7° |
| 2026-04-22 12:52 | 30.24370 | 120.42802 | 32 ft | 13 kts | 347° |
| 2026-04-22 12:53 | 30.24432 | 120.42871 | 31 ft | 17 kts | 60° |
| 2026-04-22 12:53 | 30.24509 | 120.43016 | 32 ft | 25 kts | 61° |
| 2026-04-22 12:53 | 30.24585 | 120.43203 | 32 ft | 20 kts | 66° |
| 2026-04-22 12:53 | 30.24588 | 120.43309 | 32 ft | 14 kts | 138° |
| 2026-04-22 12:54 | 30.24493 | 120.43370 | 31 ft | 17 kts | 154° |
| 2026-04-22 12:54 | 30.24339 | 120.43453 | 32 ft | 32 kts | 151° |
| 2026-04-22 12:54 | 30.24145 | 120.43576 | 31 ft | 21 kts | 153° |
| 2026-04-22 12:54 | 30.24008 | 120.43658 | 32 ft | 23 kts | 151° |
| 2026-04-22 12:55 | 30.23863 | 120.43745 | 32 ft | 24 kts | 153° |
| 2026-04-22 12:55 | 30.23722 | 120.43830 | 32 ft | 23 kts | 152° |
| 2026-04-22 12:55 | 30.23575 | 120.43917 | 32 ft | 25 kts | 153° |
| 2026-04-22 12:55 | 30.23459 | 120.43985 | 32 ft | 14 kts | 155° |
| 2026-04-22 12:56 | 30.23416 | 120.44058 | 32 ft | 11 kts | 71° |
| 2026-04-22 12:56 | 30.23448 | 120.44134 | 32 ft | 10 kts | 62° |
| 2026-04-22 12:56 | 30.23493 | 120.44229 | 32 ft | 18 kts | 62° |
| 2026-04-22 12:56 | 30.23564 | 120.44386 | 32 ft | 23 kts | 62° |
| 2026-04-22 12:57 | 30.23638 | 120.44550 | 31 ft | 24 kts | 63° |
| 2026-04-22 12:57 | 30.23716 | 120.44729 | 32 ft | 25 kts | 63° |
| 2026-04-22 12:57 | 30.23787 | 120.44890 | 32 ft | 18 kts | 64° |
| 2026-04-22 12:57 | 30.23822 | 120.45001 | 31 ft | 12 kts | 105° |
| 2026-04-22 12:58 | 30.23774 | 120.45047 | 31 ft | 0 kts | 152° |
| 2026-04-22 12:58 | 30.23773 | 120.45047 | 31 ft | 0 kts | 152° |
| 2026-04-22 12:58 | 30.23772 | 120.45048 | 29 ft | 0 kts | 152° |
| 2026-04-22 12:58 | 30.23767 | 120.45051 | 30 ft | 3 kts | 153° |
| 2026-04-22 12:59 | 30.23755 | 120.45058 | 30 ft | 4 kts | 152° |
| 2026-04-22 12:59 | 30.23712 | 120.45076 | 30 ft | 8 kts | 179° |
| 2026-04-22 12:59 | 30.23669 | 120.45046 | 29 ft | 7 kts | 225° |
| 2026-04-22 12:59 | 30.23643 | 120.44997 | 30 ft | 7 kts | 243° |
| 2026-04-22 13:00 | 30.23579 | 120.44851 | 32 ft | 51 kts | 243° |
| 2026-04-22 13:00 | 30.23308 | 120.44240 | 31 ft | 116 kts | 244° |
| 2026-04-22 13:00 | 30.22863 | 120.43239 | 41 ft | 162 kts | 240° |
| 2026-04-22 13:00 | 30.22336 | 120.42103 | 662 ft | 157 kts | 246° |
| 2026-04-22 13:01 | 30.21787 | 120.40996 | 1338 ft | 162 kts | 240° |
| 2026-04-22 13:01 | 30.21020 | 120.39995 | 1872 ft | 174 kts | 234° |
| 2026-04-22 13:01 | 30.20140 | 120.38905 | 2173 ft | 197 kts | 233° |
| 2026-04-22 13:01 | 30.19146 | 120.37676 | 2476 ft | 221 kts | 231° |
| 2026-04-22 13:02 | 30.18039 | 120.36305 | 2895 ft | 246 kts | 230° |
| 2026-04-22 13:02 | 30.16830 | 120.34802 | 3486 ft | 261 kts | 230° |
| 2026-04-22 13:02 | 30.15583 | 120.33255 | 4423 ft | 263 kts | 229° |
| 2026-04-22 13:02 | 30.14339 | 120.31705 | 5417 ft | 263 kts | 229° |
| 2026-04-22 13:03 | 30.13101 | 120.30151 | 6361 ft | 264 kts | 230° |
| 2026-04-22 13:03 | 30.11863 | 120.28585 | 6713 ft | 263 kts | 230° |
| 2026-04-22 13:03 | 30.10789 | 120.26899 | 6860 ft | 260 kts | 246° |
| 2026-04-22 13:03 | 30.10333 | 120.24899 | 6885 ft | 258 kts | 267° |
| 2026-04-22 13:04 | 30.10577 | 120.22856 | 6886 ft | 260 kts | 288° |
| 2026-04-22 13:04 | 30.11486 | 120.21040 | 6886 ft | 265 kts | 309° |
| 2026-04-22 13:04 | 30.12964 | 120.19741 | 6887 ft | 272 kts | 329° |
| 2026-04-22 13:04 | 30.13514 | 120.19427 | 6901 ft | 273 kts | 330° |
| 2026-04-22 13:05 | 30.17866 | 120.16792 | 6886 ft | 272 kts | 327° |
| 2026-04-22 13:05 | 30.19519 | 120.15733 | 6887 ft | 272 kts | 327° |
| 2026-04-22 13:05 | 30.21152 | 120.14686 | 6887 ft | 272 kts | 327° |
| 2026-04-22 13:06 | 30.22808 | 120.13627 | 6902 ft | 273 kts | 327° |
| 2026-04-22 13:06 | 30.24499 | 120.12553 | 7445 ft | 279 kts | 327° |
| 2026-04-22 13:06 | 30.26203 | 120.11475 | 7789 ft | 278 kts | 327° |
| 2026-04-22 13:06 | 30.27898 | 120.10407 | 7867 ft | 277 kts | 327° |
| 2026-04-22 13:07 | 30.29588 | 120.09342 | 7876 ft | 277 kts | 327° |
| 2026-04-22 13:07 | 30.31279 | 120.08273 | 7883 ft | 277 kts | 327° |
| 2026-04-22 13:07 | 30.32967 | 120.07205 | 7880 ft | 277 kts | 327° |
| 2026-04-22 13:07 | 30.34655 | 120.06137 | 7876 ft | 276 kts | 327° |
| 2026-04-22 13:08 | 30.36344 | 120.05069 | 7881 ft | 276 kts | 327° |
| 2026-04-22 13:08 | 30.38030 | 120.04002 | 7877 ft | 276 kts | 327° |
| 2026-04-22 13:08 | 30.39718 | 120.02931 | 7881 ft | 277 kts | 327° |
| 2026-04-22 13:08 | 30.41404 | 120.01864 | 7878 ft | 277 kts | 327° |
| 2026-04-22 13:09 | 30.43095 | 120.00797 | 7880 ft | 276 kts | 327° |
| 2026-04-22 13:09 | 30.44786 | 119.99728 | 7922 ft | 278 kts | 327° |
| 2026-04-22 13:09 | 30.46502 | 119.98640 | 8679 ft | 281 kts | 327° |
| 2026-04-22 13:09 | 30.48216 | 119.97552 | 9583 ft | 282 kts | 327° |
| 2026-04-22 13:10 | 30.49956 | 119.96449 | 10309 ft | 290 kts | 326° |
| 2026-04-22 13:10 | 30.51796 | 119.95274 | 10580 ft | 314 kts | 327° |
| 2026-04-22 13:10 | 30.53779 | 119.94004 | 10795 ft | 337 kts | 327° |
| 2026-04-22 13:10 | 30.55898 | 119.92649 | 10987 ft | 358 kts | 327° |
| 2026-04-22 13:11 | 30.58116 | 119.91240 | 11473 ft | 367 kts | 327° |
| 2026-04-22 13:11 | 30.60370 | 119.89845 | 12181 ft | 371 kts | 330° |
| 2026-04-22 13:11 | 30.62846 | 119.88836 | 12781 ft | 384 kts | 342° |
| 2026-04-22 13:11 | 30.65524 | 119.88441 | 13422 ft | 395 kts | 354° |
| 2026-04-22 13:12 | 30.68300 | 119.88719 | 14021 ft | 407 kts | 6° |
| 2026-04-22 13:12 | 30.71075 | 119.89477 | 14540 ft | 410 kts | 5° |
| 2026-04-22 13:12 | 30.73897 | 119.89688 | 15064 ft | 404 kts | 351° |
| 2026-04-22 13:12 | 30.76649 | 119.89189 | 15560 ft | 399 kts | 339° |
| 2026-04-22 13:13 | 30.79234 | 119.88076 | 16063 ft | 395 kts | 328° |
| 2026-04-22 13:13 | 30.81577 | 119.86438 | 16568 ft | 391 kts | 318° |
| 2026-04-22 13:13 | 30.83779 | 119.84555 | 17063 ft | 394 kts | 318° |
| 2026-04-22 13:13 | 30.85994 | 119.82656 | 17577 ft | 398 kts | 318° |
| 2026-04-22 13:14 | 30.88227 | 119.80739 | 18046 ft | 402 kts | 318° |
| 2026-04-22 13:14 | 30.90493 | 119.78789 | 18444 ft | 406 kts | 318° |
| 2026-04-22 13:14 | 30.92770 | 119.76828 | 18882 ft | 409 kts | 318° |
| 2026-04-22 13:14 | 30.95064 | 119.74850 | 19328 ft | 411 kts | 318° |
| 2026-04-22 13:15 | 30.97362 | 119.72866 | 19773 ft | 413 kts | 318° |
| 2026-04-22 13:15 | 30.99675 | 119.70868 | 20228 ft | 415 kts | 318° |
| 2026-04-22 13:15 | 31.01999 | 119.68863 | 20658 ft | 417 kts | 318° |
| 2026-04-22 13:15 | 31.04336 | 119.66846 | 21094 ft | 419 kts | 318° |
| 2026-04-22 13:16 | 31.06652 | 119.64847 | 21516 ft | 421 kts | 318° |
| 2026-04-22 13:16 | 31.09009 | 119.62809 | 21939 ft | 423 kts | 318° |
| 2026-04-22 13:16 | 31.11379 | 119.60759 | 22337 ft | 425 kts | 318° |
| 2026-04-22 13:16 | 31.13795 | 119.58672 | 22749 ft | 427 kts | 318° |
| 2026-04-22 13:17 | 31.16156 | 119.56632 | 23132 ft | 429 kts | 318° |
| 2026-04-22 13:17 | 31.18556 | 119.54555 | 23518 ft | 431 kts | 318° |
| 2026-04-22 13:17 | 31.20966 | 119.52463 | 23835 ft | 432 kts | 318° |
| 2026-04-22 13:17 | 31.23381 | 119.50362 | 24166 ft | 434 kts | 318° |
| 2026-04-22 13:18 | 31.25806 | 119.48255 | 24495 ft | 435 kts | 318° |
| 2026-04-22 13:18 | 31.28241 | 119.46140 | 24805 ft | 437 kts | 318° |
| 2026-04-22 13:18 | 31.29892 | 119.44706 | 25023 ft | 438 kts | 317° |
| 2026-04-22 13:18 | 31.33137 | 119.41886 | 25428 ft | 439 kts | 317° |
| 2026-04-22 13:19 | 31.34760 | 119.40476 | 25626 ft | 440 kts | 317° |
| 2026-04-22 13:19 | 31.38059 | 119.37605 | 26023 ft | 442 kts | 317° |
| 2026-04-22 13:19 | 31.40532 | 119.35446 | 26300 ft | 445 kts | 317° |
| 2026-04-22 13:19 | 31.43020 | 119.33269 | 26569 ft | 447 kts | 317° |
| 2026-04-22 13:20 | 31.45519 | 119.31084 | 26845 ft | 449 kts | 317° |
| 2026-04-22 13:20 | 31.48027 | 119.28899 | 27138 ft | 451 kts | 317° |
| 2026-04-22 13:20 | 31.50544 | 119.26707 | 27534 ft | 449 kts | 317° |
| 2026-04-22 13:20 | 31.52200 | 119.25266 | 27843 ft | 448 kts | 317° |
| 2026-04-22 13:21 | 31.55533 | 119.22355 | 28423 ft | 446 kts | 317° |
| 2026-04-22 13:21 | 31.58011 | 119.20178 | 28827 ft | 445 kts | 317° |
| 2026-04-22 13:21 | 31.59647 | 119.18733 | 29114 ft | 443 kts | 317° |
| 2026-04-22 13:21 | 31.62098 | 119.16555 | 29558 ft | 441 kts | 316° |
| 2026-04-22 13:22 | 31.64536 | 119.14377 | 30009 ft | 439 kts | 316° |
| 2026-04-22 13:22 | 31.66898 | 119.12139 | 30398 ft | 435 kts | 313° |
| 2026-04-22 13:22 | 31.69179 | 119.09825 | 30790 ft | 431 kts | 312° |
| 2026-04-22 13:22 | 31.71412 | 119.07479 | 31163 ft | 430 kts | 311° |
| 2026-04-22 13:23 | 31.73627 | 119.05128 | 31543 ft | 429 kts | 311° |
| 2026-04-22 13:23 | 31.75836 | 119.02795 | 31919 ft | 427 kts | 311° |
| 2026-04-22 13:23 | 31.78055 | 119.00480 | 32319 ft | 425 kts | 311° |
| 2026-04-22 13:23 | 31.80112 | 118.98047 | 32705 ft | 415 kts | 303° |
| 2026-04-22 13:24 | 31.81746 | 118.95298 | 33107 ft | 405 kts | 294° |
| 2026-04-22 13:24 | 31.82917 | 118.92329 | 33513 ft | 396 kts | 285° |
| 2026-04-22 13:24 | 31.83668 | 118.89249 | 33919 ft | 391 kts | 281° |
| 2026-04-22 13:24 | 31.84211 | 118.86133 | 34048 ft | 388 kts | 274° |
| 2026-04-22 13:25 | 31.84280 | 118.82967 | 34073 ft | 388 kts | 265° |
| 2026-04-22 13:25 | 31.83719 | 118.76698 | 34072 ft | 388 kts | 263° |
| 2026-04-22 13:26 | 31.83149 | 118.70338 | 34068 ft | 389 kts | 263° |
| 2026-04-22 13:26 | 31.82594 | 118.64060 | 34069 ft | 388 kts | 263° |
| 2026-04-22 13:27 | 31.82031 | 118.57759 | 34026 ft | 387 kts | 263° |
| 2026-04-22 13:27 | 31.81458 | 118.51458 | 34028 ft | 388 kts | 264° |
| 2026-04-22 13:28 | 31.80879 | 118.45138 | 34031 ft | 389 kts | 264° |
| 2026-04-22 13:28 | 31.80302 | 118.38816 | 34039 ft | 389 kts | 264° |
| 2026-04-22 13:29 | 31.79714 | 118.32486 | 34046 ft | 389 kts | 262° |
| 2026-04-22 13:29 | 31.78076 | 118.26443 | 34049 ft | 391 kts | 248° |
| 2026-04-22 13:30 | 31.75805 | 118.20648 | 34053 ft | 391 kts | 248° |
| 2026-04-22 13:30 | 31.73527 | 118.14847 | 34056 ft | 391 kts | 248° |
| 2026-04-22 13:31 | 31.71494 | 118.08954 | 34053 ft | 388 kts | 257° |
| 2026-04-22 13:31 | 31.70242 | 118.02787 | 34022 ft | 389 kts | 258° |
| 2026-04-22 13:32 | 31.68966 | 117.96595 | 34032 ft | 391 kts | 257° |
| 2026-04-22 13:32 | 31.67675 | 117.90384 | 34034 ft | 393 kts | 257° |
| 2026-04-22 13:33 | 31.66384 | 117.84143 | 34044 ft | 394 kts | 257° |
| 2026-04-22 13:33 | 31.65089 | 117.77891 | 34054 ft | 394 kts | 257° |
| 2026-04-22 13:34 | 31.63788 | 117.71645 | 34047 ft | 394 kts | 257° |
| 2026-04-22 13:34 | 31.62481 | 117.65391 | 34055 ft | 395 kts | 257° |
| 2026-04-22 13:35 | 31.61175 | 117.59140 | 34062 ft | 395 kts | 257° |
| 2026-04-22 13:35 | 31.59935 | 117.52862 | 34068 ft | 395 kts | 259° |
| 2026-04-22 13:36 | 31.58842 | 117.46556 | 34062 ft | 395 kts | 259° |
| 2026-04-22 13:36 | 31.57765 | 117.40247 | 34058 ft | 395 kts | 259° |
| 2026-04-22 13:37 | 31.56647 | 117.33936 | 34064 ft | 395 kts | 259° |
| 2026-04-22 13:37 | 31.55510 | 117.27632 | 34065 ft | 395 kts | 259° |
| 2026-04-22 13:38 | 31.54393 | 117.21323 | 34084 ft | 395 kts | 259° |
| 2026-04-22 13:38 | 31.52728 | 117.11847 | 34087 ft | 396 kts | 259° |
| 2026-04-22 13:39 | 31.51602 | 117.05531 | 34090 ft | 396 kts | 259° |
| 2026-04-22 13:39 | 31.50483 | 116.99260 | 34090 ft | 396 kts | 259° |
| 2026-04-22 13:40 | 31.49350 | 116.92946 | 34091 ft | 396 kts | 259° |
| 2026-04-22 13:40 | 31.48144 | 116.86650 | 34089 ft | 397 kts | 253° |
| 2026-04-22 13:41 | 31.45532 | 116.80940 | 34084 ft | 404 kts | 237° |
| 2026-04-22 13:41 | 31.42114 | 116.75722 | 34084 ft | 404 kts | 237° |
| 2026-04-22 13:42 | 31.38681 | 116.70497 | 34092 ft | 405 kts | 237° |
| 2026-04-22 13:42 | 31.35259 | 116.65271 | 34092 ft | 405 kts | 237° |
| 2026-04-22 13:43 | 31.31835 | 116.60036 | 34092 ft | 405 kts | 237° |
| 2026-04-22 13:43 | 31.28402 | 116.54806 | 34087 ft | 405 kts | 237° |
| 2026-04-22 13:44 | 31.24968 | 116.49585 | 34092 ft | 405 kts | 237° |
| 2026-04-22 13:44 | 31.21529 | 116.44359 | 34096 ft | 406 kts | 237° |
| 2026-04-22 13:45 | 31.18086 | 116.39136 | 34099 ft | 406 kts | 237° |
| 2026-04-22 13:45 | 31.14638 | 116.33912 | 34101 ft | 406 kts | 237° |
| 2026-04-22 13:46 | 31.11193 | 116.28700 | 34098 ft | 405 kts | 237° |
| 2026-04-22 13:46 | 31.07744 | 116.23488 | 34112 ft | 406 kts | 236° |
| 2026-04-22 13:47 | 31.04301 | 116.18274 | 34110 ft | 406 kts | 236° |
| 2026-04-22 13:47 | 31.00846 | 116.13061 | 34104 ft | 406 kts | 236° |
| 2026-04-22 13:48 | 30.97386 | 116.07858 | 34103 ft | 406 kts | 236° |
| 2026-04-22 13:48 | 30.93929 | 116.02647 | 34103 ft | 406 kts | 236° |
| 2026-04-22 13:49 | 30.90473 | 115.97446 | 34082 ft | 406 kts | 236° |
| 2026-04-22 13:49 | 30.87028 | 115.92291 | 34090 ft | 406 kts | 236° |
| 2026-04-22 13:50 | 30.83564 | 115.87100 | 34088 ft | 406 kts | 236° |
| 2026-04-22 13:50 | 30.80124 | 115.81891 | 34086 ft | 406 kts | 237° |
| 2026-04-22 13:51 | 30.76697 | 115.76662 | 34085 ft | 406 kts | 237° |
| 2026-04-22 13:51 | 30.73260 | 115.71445 | 34069 ft | 406 kts | 236° |
| 2026-04-22 13:52 | 30.69819 | 115.66251 | 34086 ft | 405 kts | 236° |
| 2026-04-22 13:52 | 30.66377 | 115.61066 | 34101 ft | 405 kts | 236° |
| 2026-04-22 13:53 | 30.62950 | 115.55882 | 34099 ft | 405 kts | 236° |
| 2026-04-22 13:53 | 30.59515 | 115.50709 | 34101 ft | 404 kts | 236° |
| 2026-04-22 13:54 | 30.56080 | 115.45546 | 34102 ft | 404 kts | 236° |
| 2026-04-22 13:54 | 30.52648 | 115.40384 | 34085 ft | 404 kts | 236° |
| 2026-04-22 13:55 | 30.49208 | 115.35227 | 34089 ft | 404 kts | 236° |
| 2026-04-22 13:55 | 30.45902 | 115.29985 | 34108 ft | 400 kts | 244° |
| 2026-04-22 13:56 | 30.44194 | 115.23935 | 34114 ft | 396 kts | 263° |
| 2026-04-22 13:56 | 30.44457 | 115.17562 | 34114 ft | 398 kts | 275° |
| 2026-04-22 13:57 | 30.45131 | 115.11179 | 34119 ft | 399 kts | 274° |
| 2026-04-22 13:57 | 30.45794 | 115.04791 | 34123 ft | 399 kts | 274° |
| 2026-04-22 13:58 | 30.46446 | 114.98399 | 34137 ft | 400 kts | 274° |
| 2026-04-22 13:58 | 30.47067 | 114.92290 | 34131 ft | 400 kts | 274° |
| 2026-04-22 13:59 | 30.47713 | 114.85931 | 34126 ft | 401 kts | 274° |
| 2026-04-22 13:59 | 30.48371 | 114.79510 | 34121 ft | 401 kts | 274° |
| 2026-04-22 14:00 | 30.49025 | 114.73090 | 34117 ft | 401 kts | 274° |
| 2026-04-22 14:00 | 30.49662 | 114.66669 | 34113 ft | 401 kts | 274° |
| 2026-04-22 14:01 | 30.50301 | 114.60251 | 34117 ft | 401 kts | 274° |
| 2026-04-22 14:01 | 30.50941 | 114.53836 | 34115 ft | 401 kts | 274° |
| 2026-04-22 14:02 | 30.51578 | 114.47462 | 34117 ft | 401 kts | 274° |
| 2026-04-22 14:02 | 30.52210 | 114.41044 | 34115 ft | 400 kts | 274° |
| 2026-04-22 14:03 | 30.52839 | 114.34621 | 34133 ft | 401 kts | 274° |
| 2026-04-22 14:03 | 30.53468 | 114.28201 | 34128 ft | 400 kts | 274° |
| 2026-04-22 14:04 | 30.54084 | 114.21784 | 34123 ft | 400 kts | 274° |
| 2026-04-22 14:04 | 30.54702 | 114.15363 | 34121 ft | 400 kts | 274° |
| 2026-04-22 14:05 | 30.55309 | 114.08945 | 34081 ft | 400 kts | 274° |
| 2026-04-22 14:06 | 30.56231 | 113.99317 | 34116 ft | 400 kts | 274° |
| 2026-04-22 14:06 | 30.56831 | 113.92907 | 34114 ft | 400 kts | 274° |
| 2026-04-22 14:07 | 30.57260 | 113.86494 | 34116 ft | 398 kts | 266° |
| 2026-04-22 14:07 | 30.55943 | 113.80304 | 34112 ft | 399 kts | 246° |
| 2026-04-22 14:08 | 30.53537 | 113.75714 | 34108 ft | 402 kts | 240° |
| 2026-04-22 14:08 | 30.50510 | 113.70266 | 34114 ft | 402 kts | 241° |
| 2026-04-22 14:09 | 30.47003 | 113.63922 | 34111 ft | 402 kts | 241° |
| 2026-04-22 14:09 | 30.44466 | 113.59355 | 34109 ft | 402 kts | 241° |
| 2026-04-22 14:10 | 30.41429 | 113.53911 | 34107 ft | 402 kts | 241° |
| 2026-04-22 14:10 | 30.38413 | 113.48503 | 34085 ft | 403 kts | 240° |
| 2026-04-22 14:11 | 30.35352 | 113.43018 | 34096 ft | 403 kts | 240° |
| 2026-04-22 14:11 | 30.32323 | 113.37603 | 34112 ft | 403 kts | 240° |
| 2026-04-22 14:12 | 30.29266 | 113.32156 | 34118 ft | 403 kts | 240° |
| 2026-04-22 14:12 | 30.26220 | 113.26710 | 34117 ft | 403 kts | 240° |
| 2026-04-22 14:13 | 30.23325 | 113.21548 | 34117 ft | 403 kts | 240° |
| 2026-04-22 14:13 | 30.20277 | 113.16101 | 34090 ft | 403 kts | 240° |
| 2026-04-22 14:14 | 30.17264 | 113.10627 | 34111 ft | 404 kts | 241° |
| 2026-04-22 14:14 | 30.14253 | 113.05135 | 34117 ft | 405 kts | 241° |
| 2026-04-22 14:15 | 30.11232 | 112.99655 | 34116 ft | 405 kts | 241° |
| 2026-04-22 14:15 | 30.08199 | 112.94168 | 34122 ft | 405 kts | 241° |
| 2026-04-22 14:16 | 30.05168 | 112.88688 | 34128 ft | 405 kts | 241° |
| 2026-04-22 14:16 | 30.02134 | 112.83210 | 34132 ft | 405 kts | 241° |
| 2026-04-22 14:17 | 29.99091 | 112.77730 | 34127 ft | 405 kts | 241° |
| 2026-04-22 14:17 | 29.96055 | 112.72255 | 34137 ft | 405 kts | 241° |
| 2026-04-22 14:18 | 29.93017 | 112.66795 | 34082 ft | 405 kts | 241° |
| 2026-04-22 14:18 | 29.91498 | 112.64066 | 33707 ft | 405 kts | 241° |
| 2026-04-22 14:18 | 29.89976 | 112.61331 | 33315 ft | 406 kts | 241° |
| 2026-04-22 14:18 | 29.88471 | 112.58628 | 32938 ft | 407 kts | 240° |
| 2026-04-22 14:19 | 29.86937 | 112.55875 | 32564 ft | 409 kts | 240° |
| 2026-04-22 14:19 | 29.85373 | 112.53073 | 32187 ft | 411 kts | 240° |
| 2026-04-22 14:19 | 29.83842 | 112.50331 | 31829 ft | 413 kts | 240° |
| 2026-04-22 14:19 | 29.82282 | 112.47542 | 31467 ft | 416 kts | 240° |
| 2026-04-22 14:20 | 29.79140 | 112.41933 | 30754 ft | 417 kts | 240° |
| 2026-04-22 14:20 | 29.77567 | 112.39130 | 30397 ft | 418 kts | 240° |
| 2026-04-22 14:20 | 29.75985 | 112.36311 | 30050 ft | 420 kts | 239° |
| 2026-04-22 14:21 | 29.72807 | 112.30651 | 29252 ft | 423 kts | 239° |
| 2026-04-22 14:21 | 29.71203 | 112.27805 | 28849 ft | 424 kts | 239° |
| 2026-04-22 14:22 | 29.67972 | 112.22093 | 28071 ft | 428 kts | 239° |
| 2026-04-22 14:22 | 29.66349 | 112.19227 | 27691 ft | 429 kts | 239° |
| 2026-04-22 14:22 | 29.63077 | 112.13460 | 26945 ft | 432 kts | 239° |
| 2026-04-22 14:23 | 29.61429 | 112.10558 | 26496 ft | 435 kts | 239° |
| 2026-04-22 14:23 | 29.59772 | 112.07641 | 26001 ft | 436 kts | 239° |
| 2026-04-22 14:23 | 29.58114 | 112.04725 | 25533 ft | 437 kts | 239° |
| 2026-04-22 14:23 | 29.56447 | 112.01796 | 25068 ft | 439 kts | 239° |
| 2026-04-22 14:24 | 29.54778 | 111.98862 | 24556 ft | 441 kts | 239° |
| 2026-04-22 14:24 | 29.53096 | 111.95907 | 23992 ft | 442 kts | 239° |
| 2026-04-22 14:24 | 29.51417 | 111.92954 | 23419 ft | 441 kts | 239° |
| 2026-04-22 14:24 | 29.49741 | 111.90012 | 22763 ft | 439 kts | 239° |
| 2026-04-22 14:25 | 29.48070 | 111.87086 | 22121 ft | 437 kts | 239° |
| 2026-04-22 14:25 | 29.46409 | 111.84176 | 21494 ft | 435 kts | 239° |
| 2026-04-22 14:25 | 29.44753 | 111.81277 | 20761 ft | 433 kts | 239° |
| 2026-04-22 14:25 | 29.43109 | 111.78399 | 20054 ft | 431 kts | 239° |
| 2026-04-22 14:26 | 29.41465 | 111.75525 | 19349 ft | 430 kts | 239° |
| 2026-04-22 14:26 | 29.39823 | 111.72664 | 18661 ft | 429 kts | 239° |
| 2026-04-22 14:26 | 29.38181 | 111.69805 | 17932 ft | 428 kts | 239° |
| 2026-04-22 14:26 | 29.36591 | 111.66942 | 17158 ft | 423 kts | 243° |
| 2026-04-22 14:27 | 29.35367 | 111.63905 | 16411 ft | 417 kts | 252° |
| 2026-04-22 14:27 | 29.34582 | 111.60736 | 15674 ft | 411 kts | 260° |
| 2026-04-22 14:27 | 29.34005 | 111.57546 | 14972 ft | 408 kts | 260° |
| 2026-04-22 14:27 | 29.33402 | 111.54383 | 14270 ft | 405 kts | 259° |
| 2026-04-22 14:28 | 29.32768 | 111.51244 | 13540 ft | 403 kts | 259° |
| 2026-04-22 14:28 | 29.32120 | 111.48132 | 12771 ft | 400 kts | 258° |
| 2026-04-22 14:28 | 29.31472 | 111.45055 | 12243 ft | 397 kts | 258° |
| 2026-04-22 14:28 | 29.30829 | 111.41983 | 11880 ft | 396 kts | 258° |
| 2026-04-22 14:29 | 29.30198 | 111.38954 | 11508 ft | 385 kts | 258° |
| 2026-04-22 14:29 | 29.29589 | 111.36018 | 11150 ft | 374 kts | 258° |
| 2026-04-22 14:29 | 29.28992 | 111.33133 | 10788 ft | 370 kts | 258° |
| 2026-04-22 14:29 | 29.28405 | 111.30281 | 10435 ft | 368 kts | 258° |
| 2026-04-22 14:30 | 29.27823 | 111.27438 | 10082 ft | 366 kts | 259° |
| 2026-04-22 14:30 | 29.27273 | 111.24639 | 9707 ft | 360 kts | 259° |
| 2026-04-22 14:30 | 29.26751 | 111.21880 | 9325 ft | 349 kts | 260° |
| 2026-04-22 14:30 | 29.26255 | 111.19213 | 9061 ft | 337 kts | 260° |
| 2026-04-22 14:31 | 29.25775 | 111.16632 | 8809 ft | 325 kts | 260° |
| 2026-04-22 14:31 | 29.25310 | 111.14139 | 8547 ft | 316 kts | 261° |
| 2026-04-22 14:31 | 29.24856 | 111.11722 | 8293 ft | 307 kts | 260° |
| 2026-04-22 14:31 | 29.24409 | 111.09367 | 8045 ft | 298 kts | 260° |
| 2026-04-22 14:32 | 29.23971 | 111.07078 | 7796 ft | 290 kts | 259° |
| 2026-04-22 14:32 | 29.23544 | 111.04852 | 7539 ft | 283 kts | 260° |
| 2026-04-22 14:32 | 29.23124 | 111.02658 | 7306 ft | 280 kts | 260° |
| 2026-04-22 14:32 | 29.22716 | 111.00516 | 7075 ft | 279 kts | 260° |
| 2026-04-22 14:33 | 29.22281 | 110.98312 | 6822 ft | 279 kts | 259° |
| 2026-04-22 14:33 | 29.21816 | 110.96152 | 6583 ft | 279 kts | 258° |
| 2026-04-22 14:33 | 29.21337 | 110.94003 | 6331 ft | 279 kts | 257° |
| 2026-04-22 14:33 | 29.20852 | 110.91851 | 6074 ft | 280 kts | 257° |
| 2026-04-22 14:34 | 29.20369 | 110.89697 | 5906 ft | 279 kts | 257° |
| 2026-04-22 14:34 | 29.19888 | 110.87542 | 5869 ft | 279 kts | 257° |
| 2026-04-22 14:34 | 29.19412 | 110.85385 | 5887 ft | 280 kts | 259° |
| 2026-04-22 14:34 | 29.19191 | 110.83185 | 5879 ft | 277 kts | 271° |
| 2026-04-22 14:35 | 29.19156 | 110.80984 | 5882 ft | 277 kts | 271° |
| 2026-04-22 14:35 | 29.19116 | 110.78765 | 5880 ft | 280 kts | 270° |
| 2026-04-22 14:35 | 29.19072 | 110.76538 | 5883 ft | 281 kts | 270° |
| 2026-04-22 14:35 | 29.19026 | 110.74298 | 5879 ft | 281 kts | 270° |
| 2026-04-22 14:36 | 29.18981 | 110.72066 | 5887 ft | 281 kts | 270° |
| 2026-04-22 14:36 | 29.18935 | 110.69831 | 5883 ft | 280 kts | 270° |
| 2026-04-22 14:36 | 29.18886 | 110.67600 | 5882 ft | 281 kts | 270° |
| 2026-04-22 14:36 | 29.18834 | 110.65368 | 5884 ft | 281 kts | 270° |
| 2026-04-22 14:37 | 29.18781 | 110.63134 | 5888 ft | 281 kts | 270° |
| 2026-04-22 14:37 | 29.18732 | 110.60902 | 5883 ft | 281 kts | 270° |
| 2026-04-22 14:37 | 29.18684 | 110.58666 | 5889 ft | 281 kts | 270° |
| 2026-04-22 14:37 | 29.18636 | 110.56429 | 5886 ft | 281 kts | 270° |
| 2026-04-22 14:38 | 29.18590 | 110.54194 | 5886 ft | 281 kts | 270° |
| 2026-04-22 14:38 | 29.18541 | 110.51958 | 5887 ft | 281 kts | 270° |
| 2026-04-22 14:38 | 29.18493 | 110.49755 | 5887 ft | 281 kts | 270° |
| 2026-04-22 14:38 | 29.18444 | 110.47522 | 5887 ft | 281 kts | 270° |
| 2026-04-22 14:39 | 29.18394 | 110.45294 | 5884 ft | 279 kts | 270° |
| 2026-04-22 14:39 | 29.18337 | 110.43079 | 5889 ft | 279 kts | 268° |
| 2026-04-22 14:39 | 29.18211 | 110.40867 | 5888 ft | 279 kts | 266° |
| 2026-04-22 14:40 | 29.17914 | 110.37162 | 5786 ft | 279 kts | 265° |
| 2026-04-22 14:40 | 29.17672 | 110.34240 | 5625 ft | 278 kts | 265° |
| 2026-04-22 14:40 | 29.17496 | 110.32040 | 5481 ft | 278 kts | 265° |
| 2026-04-22 14:40 | 29.17323 | 110.29836 | 5367 ft | 277 kts | 265° |
| 2026-04-22 14:41 | 29.17154 | 110.27641 | 5242 ft | 277 kts | 266° |
| 2026-04-22 14:41 | 29.16987 | 110.25446 | 5118 ft | 277 kts | 265° |
| 2026-04-22 14:41 | 29.16817 | 110.23255 | 4993 ft | 277 kts | 265° |
| 2026-04-22 14:41 | 29.16649 | 110.21061 | 4868 ft | 277 kts | 265° |
| 2026-04-22 14:42 | 29.16484 | 110.18868 | 4738 ft | 276 kts | 265° |
| 2026-04-22 14:42 | 29.16266 | 110.16695 | 4605 ft | 275 kts | 256° |
| 2026-04-22 14:42 | 29.15404 | 110.14773 | 4477 ft | 273 kts | 227° |
| 2026-04-22 14:42 | 29.13878 | 110.13546 | 4340 ft | 270 kts | 202° |
| 2026-04-22 14:43 | 29.12047 | 110.13244 | 4216 ft | 267 kts | 175° |
| 2026-04-22 14:43 | 29.10198 | 110.13424 | 4085 ft | 264 kts | 173° |
| 2026-04-22 14:43 | 29.08464 | 110.13881 | 3952 ft | 249 kts | 155° |
| 2026-04-22 14:43 | 29.07032 | 110.14860 | 3918 ft | 232 kts | 138° |
| 2026-04-22 14:44 | 29.05952 | 110.16215 | 3932 ft | 230 kts | 122° |
| 2026-04-22 14:44 | 29.05257 | 110.17826 | 3925 ft | 220 kts | 106° |
| 2026-04-22 14:44 | 29.04986 | 110.19480 | 3925 ft | 205 kts | 91° |
| 2026-04-22 14:44 | 29.05083 | 110.21054 | 3924 ft | 193 kts | 77° |
| 2026-04-22 14:45 | 29.05404 | 110.22521 | 3953 ft | 188 kts | 75° |
| 2026-04-22 14:45 | 29.05714 | 110.23901 | 3924 ft | 168 kts | 75° |
| 2026-04-22 14:45 | 29.05989 | 110.25128 | 3917 ft | 153 kts | 75° |
| 2026-04-22 14:45 | 29.06251 | 110.26291 | 3833 ft | 149 kts | 75° |
| 2026-04-22 14:46 | 29.06507 | 110.27431 | 3667 ft | 148 kts | 74° |
| 2026-04-22 14:46 | 29.06762 | 110.28567 | 3504 ft | 147 kts | 74° |
| 2026-04-22 14:46 | 29.07010 | 110.29672 | 3305 ft | 142 kts | 75° |
| 2026-04-22 14:46 | 29.07254 | 110.30759 | 3095 ft | 141 kts | 75° |
| 2026-04-22 14:47 | 29.07497 | 110.31846 | 2888 ft | 140 kts | 75° |
| 2026-04-22 14:47 | 29.07739 | 110.32928 | 2680 ft | 141 kts | 75° |
| 2026-04-22 14:47 | 29.07983 | 110.34014 | 2457 ft | 141 kts | 75° |
| 2026-04-22 14:47 | 29.08227 | 110.35101 | 2249 ft | 141 kts | 75° |
| 2026-04-22 14:48 | 29.08706 | 110.37239 | 1855 ft | 140 kts | 76° |
| 2026-04-22 14:48 | 29.08947 | 110.38319 | 1678 ft | 140 kts | 76° |
| 2026-04-22 14:48 | 29.09189 | 110.39395 | 1467 ft | 139 kts | 75° |
| 2026-04-22 14:49 | 29.09429 | 110.40469 | 1272 ft | 139 kts | 76° |
| 2026-04-22 14:49 | 29.09666 | 110.41537 | 1040 ft | 138 kts | 75° |
| 2026-04-22 14:49 | 29.09905 | 110.42598 | 846 ft | 138 kts | 76° |
| 2026-04-22 14:49 | 29.10133 | 110.43656 | 754 ft | 136 kts | 76° |
| 2026-04-22 14:50 | 29.10348 | 110.44621 | 708 ft | 104 kts | 74° |
| 2026-04-22 14:50 | 29.10490 | 110.45229 | 700 ft | 54 kts | 76° |
| 2026-04-22 14:50 | 29.10555 | 110.45524 | 695 ft | 32 kts | 75° |
| 2026-04-22 14:50 | 29.10610 | 110.45623 | 693 ft | 9 kts | 14° |
| 2026-04-22 14:51 | 29.10704 | 110.45611 | 692 ft | 16 kts | 336° |
| 2026-04-22 14:51 | 29.10726 | 110.45509 | 694 ft | 13 kts | 253° |
| 2026-04-22 14:51 | 29.10701 | 110.45417 | 696 ft | 11 kts | 253° |
| 2026-04-22 14:51 | 29.10676 | 110.45308 | 698 ft | 20 kts | 254° |
| 2026-04-22 14:52 | 29.10633 | 110.45114 | 699 ft | 30 kts | 256° |
| 2026-04-22 14:52 | 29.10589 | 110.44923 | 702 ft | 28 kts | 256° |
| 2026-04-22 14:52 | 29.10539 | 110.44723 | 701 ft | 24 kts | 254° |
| 2026-04-22 14:52 | 29.10500 | 110.44545 | 700 ft | 22 kts | 256° |
| 2026-04-22 14:53 | 29.10466 | 110.44395 | 710 ft | 17 kts | 255° |
| 2026-04-22 14:53 | 29.10466 | 110.44289 | 713 ft | 13 kts | 313° |
| 2026-04-22 14:53 | 29.10534 | 110.44311 | 714 ft | 12 kts | 50° |
| 2026-04-22 14:53 | 29.10605 | 110.44320 | 709 ft | 10 kts | 344° |
| 2026-04-22 14:54 | 29.10664 | 110.44300 | 717 ft | 7 kts | 336° |
| 2026-04-22 14:54 | 29.10678 | 110.44274 | 710 ft | 5 kts | 280° |
| 2026-04-22 14:54 | 29.10676 | 110.44242 | 715 ft | 1 kts | 258° |
| 2026-04-22 14:54 | 29.10675 | 110.44238 | 715 ft | 0 kts | 257° |